Time;durP1;ratioP1;P1;durP2;ratioP2;P2;SDS_P1;SDS_P2;PMS_P1;PMS_P2;Temp;Humidity;BMP_temperature;BMP_pressure;BME280_temperature;BME280_humidity;BME280_pressure;Samples;Min_cycle;Max_cycle;Signal;HPM_P1;HPM_P2
2024/03/24 05:01:14;;;;;;;9.30;6.93;;;4.90;99.90;;;;;;6216737;22;20250;-71
2024/03/24 05:03:40;;;;;;;17.80;7.85;;;4.90;99.90;;;;;;6304050;22;20187;-70
2024/03/24 05:06:07;;;;;;;14.90;9.40;;;4.90;99.90;;;;;;6300383;22;20249;-70
2024/03/24 05:08:33;;;;;;;14.93;10.20;;;5.00;99.90;;;;;;6302512;22;20425;-70
2024/03/24 05:11:01;;;;;;;11.43;7.15;;;5.00;99.90;;;;;;6299766;22;20245;-70
2024/03/24 05:13:26;;;;;;;9.85;6.60;;;5.00;99.90;;;;;;6303597;22;20495;-70
2024/03/24 05:15:53;;;;;;;18.13;10.50;;;5.00;99.90;;;;;;6303707;22;20182;-70
2024/03/24 05:18:21;;;;;;;8.25;6.63;;;5.00;99.90;;;;;;6304285;22;20180;-71
2024/03/24 05:20:48;;;;;;;8.82;7.15;;;5.00;99.90;;;;;;6303361;22;20201;-69
2024/03/24 05:23:18;;;;;;;13.40;7.55;;;5.00;99.90;;;;;;6302876;22;20197;-70
2024/03/24 05:25:48;;;;;;;18.05;10.05;;;5.10;99.90;;;;;;6303358;22;20262;-70
2024/03/24 05:28:14;;;;;;;13.68;8.90;;;5.10;99.90;;;;;;6304117;22;20168;-70
2024/03/24 05:30:41;;;;;;;10.30;8.50;;;5.10;99.90;;;;;;6303762;22;20223;-70
2024/03/24 05:33:07;;;;;;;13.98;9.15;;;5.10;99.90;;;;;;6303294;22;20196;-70
2024/03/24 05:35:35;;;;;;;10.77;7.87;;;5.10;99.90;;;;;;6303075;22;20224;-70
2024/03/24 05:38:01;;;;;;;15.07;9.40;;;5.10;99.90;;;;;;6303876;22;20209;-71
2024/03/24 05:40:27;;;;;;;23.03;9.70;;;5.20;99.90;;;;;;6303578;22;20178;-71
2024/03/24 05:42:53;;;;;;;11.52;6.03;;;5.20;99.90;;;;;;6303598;22;20230;-71
2024/03/24 05:45:20;;;;;;;11.07;9.27;;;5.20;99.90;;;;;;6303252;22;20493;-70
2024/03/24 05:47:46;;;;;;;16.90;9.07;;;5.10;99.90;;;;;;6303563;22;20206;-71
2024/03/24 05:50:12;;;;;;;14.40;9.90;;;5.00;99.90;;;;;;6303582;22;20575;-71
2024/03/24 05:52:41;;;;;;;10.18;7.18;;;5.00;99.90;;;;;;6302214;22;20201;-70
2024/03/24 05:55:09;;;;;;;12.27;8.85;;;5.00;99.90;;;;;;6303650;22;20181;-70
2024/03/24 05:57:35;;;;;;;12.75;7.45;;;5.00;99.90;;;;;;6303479;22;20180;-68
2024/03/24 06:00:03;;;;;;;10.55;7.50;;;4.90;99.90;;;;;;6303942;22;20235;-69
2024/03/24 06:02:30;;;;;;;10.52;7.03;;;5.00;99.90;;;;;;6313768;22;20199;-68
2024/03/24 06:04:57;;;;;;;9.70;7.53;;;4.90;99.90;;;;;;6303621;22;20175;-71
2024/03/24 06:07:22;;;;;;;18.83;8.45;;;4.90;99.90;;;;;;6301166;22;20214;-70
2024/03/24 06:09:51;;;;;;;11.03;7.90;;;5.00;99.90;;;;;;6303410;22;20184;-71
2024/03/24 06:12:17;;;;;;;11.35;7.47;;;5.00;99.90;;;;;;6303375;22;20444;-71
2024/03/24 06:14:44;;;;;;;13.10;8.33;;;5.00;99.90;;;;;;6303498;22;20180;-71
2024/03/24 06:17:09;;;;;;;8.93;5.57;;;5.00;99.90;;;;;;6303640;22;20441;-70
2024/03/24 06:19:36;;;;;;;10.63;7.53;;;5.00;99.90;;;;;;6303289;22;20178;-69
2024/03/24 06:22:02;;;;;;;11.02;7.22;;;5.00;99.90;;;;;;6303324;22;20220;-69
2024/03/24 06:24:29;;;;;;;7.90;6.23;;;5.10;99.90;;;;;;6303003;22;20176;-71
2024/03/24 06:26:56;;;;;;;9.90;7.03;;;5.00;99.90;;;;;;6304323;22;20415;-69
2024/03/24 06:29:23;;;;;;;9.80;8.77;;;5.10;99.90;;;;;;6304140;22;20219;-71
2024/03/24 06:31:48;;;;;;;9.98;5.63;;;5.10;99.90;;;;;;6303408;22;20200;-71
2024/03/24 06:34:15;;;;;;;12.10;6.20;;;5.10;99.90;;;;;;6313955;22;20263;-71
2024/03/24 06:36:41;;;;;;;6.15;4.93;;;5.10;99.90;;;;;;6302312;22;20187;-70
2024/03/24 06:39:08;;;;;;;7.90;6.05;;;5.10;99.90;;;;;;6303782;22;20178;-70
2024/03/24 06:41:38;;;;;;;12.90;8.30;;;5.20;99.90;;;;;;6302283;22;20232;-72
2024/03/24 06:44:12;;;;;;;16.60;9.13;;;5.20;99.90;;;;;;6301899;22;20487;-72
2024/03/24 06:46:38;;;;;;;7.90;6.00;;;5.30;99.90;;;;;;6302257;22;20165;-68
2024/03/24 06:49:05;;;;;;;10.80;6.67;;;5.30;99.90;;;;;;6301084;22;20249;-72
2024/03/24 06:51:31;;;;;;;9.07;6.60;;;5.20;99.90;;;;;;6302016;22;20435;-71
2024/03/24 06:53:58;;;;;;;7.27;6.43;;;5.20;99.90;;;;;;6312445;22;20372;-71
2024/03/24 06:56:23;;;;;;;6.40;6.00;;;5.20;99.90;;;;;;6312190;22;20257;-71
2024/03/24 06:58:51;;;;;;;8.40;6.23;;;5.20;99.90;;;;;;6302211;22;20263;-70
2024/03/24 07:01:18;;;;;;;14.82;7.03;;;5.20;99.90;;;;;;6302432;22;20856;-71
2024/03/24 07:03:45;;;;;;;8.18;5.78;;;5.20;99.90;;;;;;6303400;22;20198;-71
2024/03/24 07:06:13;;;;;;;9.70;5.78;;;5.20;99.90;;;;;;6314551;22;20179;-73
2024/03/24 07:08:40;;;;;;;9.13;6.18;;;5.20;99.90;;;;;;6304757;22;20192;-72
2024/03/24 07:11:06;;;;;;;7.47;5.50;;;5.20;99.90;;;;;;6304325;22;20260;-72
2024/03/24 07:13:33;;;;;;;8.03;6.03;;;5.30;99.90;;;;;;6303704;22;20196;-70
2024/03/24 07:15:59;;;;;;;5.18;4.35;;;5.30;99.90;;;;;;6313726;22;20186;-71
2024/03/24 07:18:27;;;;;;;5.55;4.43;;;5.20;99.90;;;;;;6303763;22;20199;-72
2024/03/24 07:20:58;;;;;;;7.50;5.18;;;5.30;99.90;;;;;;6304108;22;20208;-71
2024/03/24 07:23:25;;;;;;;5.15;4.65;;;5.30;99.90;;;;;;6304588;22;20204;-69
2024/03/24 07:25:50;;;;;;;5.72;4.15;;;5.20;99.90;;;;;;6312512;22;20463;-72
2024/03/24 07:28:17;;;;;;;5.87;4.30;;;5.20;99.90;;;;;;6304094;22;20202;-71
2024/03/24 07:30:44;;;;;;;4.05;3.65;;;5.20;99.90;;;;;;6303891;22;20440;-72
2024/03/24 07:33:11;;;;;;;3.80;3.60;;;5.20;99.90;;;;;;6313977;22;20730;-72
2024/03/24 07:35:38;;;;;;;7.18;4.47;;;5.20;99.90;;;;;;6304150;22;20273;-72
2024/03/24 07:38:05;;;;;;;7.25;3.42;;;5.20;99.90;;;;;;6303740;22;20176;-72
2024/03/24 07:40:31;;;;;;;4.72;3.45;;;5.20;99.90;;;;;;6303321;22;20685;-73
2024/03/24 07:42:58;;;;;;;5.43;4.03;;;5.20;99.90;;;;;;6304328;22;20221;-73
2024/03/24 07:45:24;;;;;;;5.60;4.55;;;5.30;99.90;;;;;;6302250;22;20497;-71
2024/03/24 07:47:51;;;;;;;7.20;4.20;;;5.20;99.90;;;;;;6312984;22;20192;-71
2024/03/24 07:50:17;;;;;;;7.80;4.20;;;5.20;99.90;;;;;;6302204;22;20178;-72
2024/03/24 07:52:45;;;;;;;8.35;4.68;;;5.20;99.90;;;;;;6303362;22;20286;-73
2024/03/24 07:55:11;;;;;;;4.38;3.72;;;5.30;99.90;;;;;;6304406;22;20199;-72
2024/03/24 07:57:38;;;;;;;7.80;4.87;;;5.30;99.90;;;;;;6303749;22;20200;-71
2024/03/24 08:00:06;;;;;;;6.18;3.40;;;5.30;99.90;;;;;;6303061;22;20420;-71
2024/03/24 08:02:33;;;;;;;4.15;3.70;;;5.30;99.90;;;;;;6303204;22;20200;-73
2024/03/24 08:04:59;;;;;;;4.80;4.45;;;5.30;99.90;;;;;;6303586;22;20266;-72
2024/03/24 08:07:32;;;;;;;4.90;4.40;;;5.40;99.90;;;;;;6303197;22;20211;-71
2024/03/24 08:09:59;;;;;;;5.30;3.97;;;5.40;99.90;;;;;;6314402;22;20231;-72
2024/03/24 08:12:26;;;;;;;5.32;4.45;;;5.40;99.90;;;;;;6302673;22;20566;-72
2024/03/24 08:14:52;;;;;;;5.32;4.70;;;5.40;99.90;;;;;;6304154;22;20183;-73
2024/03/24 08:17:19;;;;;;;7.03;5.90;;;5.40;99.90;;;;;;6304061;22;20488;-72
2024/03/24 08:19:44;;;;;;;4.50;2.90;;;5.50;99.90;;;;;;6304350;22;20176;-72
2024/03/24 08:22:11;;;;;;;3.57;3.10;;;5.60;99.90;;;;;;6302355;22;20281;-72
2024/03/24 08:24:39;;;;;;;4.80;4.30;;;5.70;99.90;;;;;;6303413;22;20632;-72
2024/03/24 08:27:10;;;;;;;5.68;5.18;;;5.90;99.90;;;;;;6303856;22;20179;-73
2024/03/24 08:29:36;;;;;;;5.47;4.68;;;6.10;99.90;;;;;;6304718;22;20164;-72
2024/03/24 08:32:02;;;;;;;5.07;4.17;;;6.10;99.90;;;;;;6303819;22;20305;-73
2024/03/24 08:34:28;;;;;;;5.30;4.90;;;6.10;99.90;;;;;;6304432;22;20438;-72
2024/03/24 08:36:56;;;;;;;4.65;3.88;;;6.00;99.90;;;;;;6303616;22;20176;-72
2024/03/24 08:39:21;;;;;;;5.18;4.35;;;6.00;99.90;;;;;;6303959;22;20187;-72
2024/03/24 08:41:48;;;;;;;4.97;4.50;;;6.00;99.90;;;;;;6302913;22;20192;-72
2024/03/24 08:44:15;;;;;;;4.40;4.15;;;6.00;99.90;;;;;;6300026;22;20943;-72
2024/03/24 08:46:42;;;;;;;7.38;5.07;;;6.10;99.90;;;;;;6302554;22;20186;-70
2024/03/24 08:49:08;;;;;;;6.47;5.07;;;6.20;99.90;;;;;;6312876;22;20186;-73
2024/03/24 08:51:35;;;;;;;6.97;6.00;;;6.20;99.90;;;;;;6313944;22;20287;-72
2024/03/24 08:54:01;;;;;;;6.32;5.75;;;6.30;99.90;;;;;;6301627;22;20823;-69
2024/03/24 08:56:27;;;;;;;5.30;4.67;;;6.30;99.90;;;;;;6313430;22;20174;-73
2024/03/24 08:58:53;;;;;;;5.20;4.70;;;6.30;99.90;;;;;;6302274;22;20850;-72
2024/03/24 09:01:22;;;;;;;7.70;4.80;;;6.40;99.90;;;;;;6302778;22;20209;-73
2024/03/24 09:03:47;;;;;;;6.50;5.15;;;6.50;99.90;;;;;;6304115;22;20410;-71
2024/03/24 09:06:15;;;;;;;5.10;4.60;;;6.50;99.90;;;;;;6302799;22;20187;-73
2024/03/24 09:08:41;;;;;;;7.38;5.43;;;6.60;99.90;;;;;;6302983;22;20264;-73
2024/03/24 09:11:09;;;;;;;6.27;4.40;;;6.60;99.90;;;;;;6303615;22;20203;-72
2024/03/24 09:13:36;;;;;;;5.22;4.50;;;6.60;99.90;;;;;;6303209;22;20743;-72
2024/03/24 09:16:03;;;;;;;6.00;3.75;;;6.70;99.90;;;;;;6303173;22;20186;-70
2024/03/24 09:18:31;;;;;;;3.67;3.47;;;6.70;99.90;;;;;;6302792;22;20291;-71
2024/03/24 09:21:02;;;;;;;11.43;4.43;;;6.70;99.90;;;;;;6302286;22;20199;-73
2024/03/24 09:23:28;;;;;;;3.22;2.72;;;6.80;99.90;;;;;;6302870;22;20557;-72
2024/03/24 09:25:55;;;;;;;3.30;2.97;;;6.80;99.90;;;;;;6300716;22;20180;-71
2024/03/24 09:28:21;;;;;;;2.00;1.80;;;6.80;99.90;;;;;;6301913;22;20249;-72
2024/03/24 09:30:56;;;;;;;3.00;2.80;;;6.80;99.90;;;;;;6301828;22;20196;-73
2024/03/24 09:33:21;;;;;;;3.30;3.10;;;6.70;99.90;;;;;;6302749;22;20495;-73
2024/03/24 09:35:50;;;;;;;4.47;4.07;;;6.80;99.90;;;;;;6302116;22;20186;-73
2024/03/24 09:38:16;;;;;;;3.80;3.03;;;6.90;99.90;;;;;;6302839;22;20890;-72
2024/03/24 09:40:42;;;;;;;4.23;3.03;;;7.00;99.90;;;;;;6302746;22;20230;-70
2024/03/24 09:43:08;;;;;;;3.63;3.30;;;7.20;99.90;;;;;;6302138;22;20194;-72
2024/03/24 09:45:35;;;;;;;3.83;3.17;;;7.30;99.90;;;;;;6301254;22;20172;-72
2024/03/24 09:48:02;;;;;;;3.72;3.28;;;7.40;99.90;;;;;;6303797;22;20184;-73
2024/03/24 09:50:31;;;;;;;3.22;3.03;;;7.40;99.90;;;;;;6312192;22;20175;-71
2024/03/24 09:52:59;;;;;;;2.35;2.25;;;7.50;99.90;;;;;;6302882;22;20206;-73
2024/03/24 09:55:28;;;;;;;2.85;2.65;;;7.50;99.90;;;;;;6302998;22;20289;-73
2024/03/24 09:57:54;;;;;;;2.47;2.28;;;7.50;99.90;;;;;;6312609;22;20176;-74
2024/03/24 10:00:22;;;;;;;1.60;1.60;;;;;;;;;;6303320;22;20176;-74
2024/03/24 10:02:48;;;;;;;1.85;1.75;;;;;;;;;;6302041;22;20239;-73
2024/03/24 10:05:16;;;;;;;1.90;1.80;;;7.40;99.90;;;;;;6302366;22;20191;-72
2024/03/24 10:07:42;;;;;;;1.45;1.35;;;7.30;99.90;;;;;;6311662;22;20442;-74
2024/03/24 10:10:11;;;;;;;7.30;6.53;;;7.30;99.90;;;;;;6303583;22;20171;-73
2024/03/24 10:12:38;;;;;;;2.30;1.52;;;7.20;99.90;;;;;;6301193;22;20468;-72
2024/03/24 10:15:17;;;;;;;4.10;3.58;;;7.20;99.90;;;;;;6302524;22;20592;-73
2024/03/24 10:17:43;;;;;;;2.42;2.33;;;7.30;99.90;;;;;;6301980;22;20167;-72
2024/03/24 10:20:13;;;;;;;2.45;1.80;;;7.40;99.90;;;;;;6303234;22;20203;-73
2024/03/24 10:22:40;;;;;;;2.08;1.98;;;7.40;99.90;;;;;;6302259;22;20480;-73
2024/03/24 10:25:12;;;;;;;1.88;1.55;;;7.50;99.90;;;;;;6302582;22;20485;-73
2024/03/24 10:27:38;;;;;;;1.85;1.85;;;7.40;99.90;;;;;;6303852;22;20166;-72
2024/03/24 10:30:06;;;;;;;2.38;2.28;;;7.40;99.90;;;;;;6303858;22;20172;-73
2024/03/24 10:32:33;;;;;;;1.35;1.30;;;7.50;99.90;;;;;;6301101;22;20286;-73
2024/03/24 10:35:00;;;;;;;2.03;2.03;;;7.50;99.90;;;;;;6313061;22;20286;-73
2024/03/24 10:37:27;;;;;;;5.95;1.92;;;7.60;99.90;;;;;;6297680;22;20198;-73
2024/03/24 10:39:54;;;;;;;1.05;1.05;;;7.60;99.90;;;;;;6304726;22;20176;-72
2024/03/24 10:42:23;;;;;;;1.45;1.35;;;7.60;99.90;;;;;;6303883;22;20283;-73
2024/03/24 10:44:51;;;;;;;1.25;1.25;;;7.50;99.90;;;;;;6302241;22;20489;-74
2024/03/24 10:47:17;;;;;;;1.40;1.30;;;7.40;99.90;;;;;;6298926;22;20180;-74
2024/03/24 10:49:47;;;;;;;1.85;1.38;;;7.50;99.90;;;;;;6299674;22;20179;-74
2024/03/24 10:52:17;;;;;;;0.90;0.90;;;7.50;99.90;;;;;;6302252;22;20199;-73
2024/03/24 10:54:47;;;;;;;1.45;1.45;;;7.50;99.90;;;;;;6302609;22;20583;-74
2024/03/24 10:57:14;;;;;;;1.30;1.30;;;7.60;99.90;;;;;;6312074;22;20221;-73
2024/03/24 10:59:43;;;;;;;1.00;1.00;;;7.80;99.90;;;;;;6313029;22;20176;-72
2024/03/24 11:02:14;;;;;;;2.10;0.90;;;7.90;99.90;;;;;;6313234;22;20679;-71
2024/03/24 11:04:42;;;;;;;2.88;1.15;;;8.10;99.90;;;;;;6301801;22;20168;-70
2024/03/24 11:07:09;;;;;;;1.10;1.10;;;8.30;99.90;;;;;;6301307;22;20180;-72
2024/03/24 11:09:36;;;;;;;0.40;0.40;;;8.30;99.90;;;;;;6301570;22;20207;-70
2024/03/24 11:12:03;;;;;;;1.63;1.60;;;8.40;99.90;;;;;;6302063;22;20275;-72
2024/03/24 11:14:30;;;;;;;1.25;0.93;;;8.30;99.90;;;;;;6301766;22;20200;-74
2024/03/24 11:16:58;;;;;;;1.08;1.08;;;8.20;99.90;;;;;;6302009;22;20190;-72
2024/03/24 11:19:27;;;;;;;1.70;1.02;;;8.30;99.90;;;;;;6302660;22;20199;-72
2024/03/24 11:21:53;;;;;;;1.33;0.93;;;8.40;99.90;;;;;;6302234;22;20203;-73
2024/03/24 11:24:26;;;;;;;1.00;1.00;;;8.40;99.90;;;;;;6301279;22;20172;-74
2024/03/24 11:26:51;;;;;;;1.45;1.45;;;8.30;99.90;;;;;;6302812;22;20403;-73
2024/03/24 11:29:51;;;;;;;1.90;1.40;;;8.40;99.90;;;;;;6301726;22;20260;-73
2024/03/24 11:32:19;;;;;;;1.75;1.17;;;8.40;99.90;;;;;;6301818;22;20199;-73
2024/03/24 11:34:51;;;;;;;1.50;1.50;;;8.30;99.90;;;;;;6301056;22;20200;-73
2024/03/24 11:37:16;;;;;;;1.50;1.50;;;8.50;99.90;;;;;;6301881;22;20164;-73
2024/03/24 11:39:44;;;;;;;1.50;1.40;;;8.70;99.90;;;;;;6312843;22;20176;-72
2024/03/24 11:42:12;;;;;;;1.85;1.20;;;8.80;99.90;;;;;;6302769;22;20441;-74
2024/03/24 11:44:39;;;;;;;1.15;0.82;;;9.00;99.90;;;;;;6301310;22;20178;-73
2024/03/24 11:47:05;;;;;;;1.70;1.30;;;9.30;99.90;;;;;;6299473;22;20184;-73
2024/03/24 11:49:47;;;;;;;0.90;0.90;;;9.50;99.90;;;;;;6302736;22;20182;-72
2024/03/24 11:52:15;;;;;;;4.82;2.63;;;9.80;99.90;;;;;;6301685;22;20534;-72
2024/03/24 11:54:43;;;;;;;0.93;0.87;;;9.90;99.90;;;;;;6301447;22;20282;-72
2024/03/24 11:57:09;;;;;;;3.50;1.40;;;9.90;99.90;;;;;;6302076;22;20433;-73
2024/03/24 11:59:35;;;;;;;1.13;1.13;;;9.70;99.90;;;;;;6312321;22;21205;-71
2024/03/24 12:02:01;;;;;;;1.60;1.10;;;9.60;99.90;;;;;;6300743;22;20543;-71
2024/03/24 12:04:29;;;;;;;0.93;0.90;;;9.50;99.90;;;;;;6301683;22;20605;-71
2024/03/24 12:06:56;;;;;;;0.90;0.90;;;9.30;99.90;;;;;;6303581;22;20535;-71
2024/03/24 12:09:23;;;;;;;1.30;1.10;;;9.30;99.90;;;;;;6302898;22;20214;-72
2024/03/24 12:11:54;;;;;;;0.68;0.68;;;9.40;99.90;;;;;;6302384;22;20206;-70
2024/03/24 12:14:21;;;;;;;2.47;1.65;;;9.60;99.90;;;;;;6301268;22;20196;-71
2024/03/24 12:16:47;;;;;;;0.93;0.93;;;9.80;99.90;;;;;;6299415;22;20174;-70
2024/03/24 12:19:15;;;;;;;1.53;1.40;;;9.90;99.90;;;;;;6302354;22;20445;-70
2024/03/24 12:21:41;;;;;;;1.45;1.35;;;10.00;99.90;;;;;;6301686;22;20212;-70
2024/03/24 12:24:09;;;;;;;2.47;2.22;;;9.90;99.90;;;;;;6300742;22;20168;-72
2024/03/24 12:26:35;;;;;;;0.65;0.65;;;9.70;99.90;;;;;;6302253;22;20212;-70
2024/03/24 12:29:02;;;;;;;0.47;0.47;;;9.80;99.90;;;;;;6302436;22;20186;-71
2024/03/24 12:31:28;;;;;;;1.05;1.05;;;9.60;99.90;;;;;;6302664;22;20442;-72
2024/03/24 12:33:55;;;;;;;2.53;2.27;;;9.40;99.90;;;;;;6300880;22;20672;-72
2024/03/24 12:36:21;;;;;;;1.20;1.05;;;9.20;99.90;;;;;;6312544;22;20425;-72
2024/03/24 12:38:50;;;;;;;1.85;1.15;;;9.10;99.90;;;;;;6302245;22;20986;-70
2024/03/24 12:41:23;;;;;;;1.00;1.00;;;9.10;99.90;;;;;;6301752;22;20659;-72
2024/03/24 12:43:56;;;;;;;1.42;0.40;;;9.10;99.90;;;;;;6301260;22;20270;-72
2024/03/24 12:46:25;;;;;;;0.55;0.55;;;9.10;99.90;;;;;;6300956;22;20172;-73
2024/03/24 12:48:52;;;;;;;1.02;0.82;;;9.20;99.90;;;;;;6301975;22;20255;-72
2024/03/24 12:51:18;;;;;;;1.08;0.70;;;9.20;99.90;;;;;;6311938;22;20675;-69
2024/03/24 12:53:53;;;;;;;0.77;0.77;;;8.70;99.90;;;;;;6301737;22;20282;-72
2024/03/24 12:56:20;;;;;;;0.57;0.57;;;9.30;99.90;;;;;;6302034;22;20870;-73
2024/03/24 12:58:49;;;;;;;1.58;0.95;;;9.20;99.90;;;;;;6302045;22;20567;-70
2024/03/24 13:01:16;;;;;;;0.45;0.45;;;9.20;99.90;;;;;;6301366;22;20207;-70
2024/03/24 13:03:44;;;;;;;0.52;0.52;;;9.10;99.90;;;;;;6300972;22;20640;-72
2024/03/24 13:06:14;;;;;;;0.40;0.40;;;9.00;99.90;;;;;;6301918;22;20183;-71
2024/03/24 13:08:43;;;;;;;0.50;0.50;;;8.90;99.90;;;;;;6303136;22;20550;-72
2024/03/24 13:11:10;;;;;;;0.40;0.40;;;8.90;99.90;;;;;;6301455;22;20206;-72
2024/03/24 13:13:38;;;;;;;0.52;0.52;;;;;;;;;;6301518;22;20571;-69
2024/03/24 13:16:07;;;;;;;0.75;0.75;;;8.70;99.90;;;;;;6301101;22;20194;-71
2024/03/24 13:18:44;;;;;;;0.47;0.47;;;8.60;99.90;;;;;;6301763;22;20186;-70
2024/03/24 13:21:14;;;;;;;2.75;0.82;;;8.50;99.90;;;;;;6301760;22;20196;-71
2024/03/24 13:23:42;;;;;;;0.57;0.57;;;8.40;99.90;;;;;;6301784;22;20457;-69
2024/03/24 13:26:11;;;;;;;0.30;0.30;;;8.50;99.90;;;;;;6301386;22;20187;-71
2024/03/24 13:28:37;;;;;;;1.63;1.20;;;8.40;99.90;;;;;;6301953;22;20254;-72
2024/03/24 13:31:05;;;;;;;0.40;0.40;;;8.30;99.90;;;;;;6302104;22;20219;-71
2024/03/24 13:33:32;;;;;;;0.55;0.55;;;;;;;;;;6310838;22;20267;-72
2024/03/24 13:35:59;;;;;;;0.57;0.55;;;8.10;99.90;;;;;;6300228;22;20255;-71
2024/03/24 13:38:35;;;;;;;1.52;1.40;;;8.00;99.90;;;;;;6298277;22;20198;-72
2024/03/24 13:41:13;;;;;;;1.00;0.43;;;8.00;99.90;;;;;;6301302;22;20206;-72
2024/03/24 13:43:54;;;;;;;0.75;0.75;;;8.00;99.90;;;;;;6302242;22;20152;-72
2024/03/24 13:46:23;;;;;;;1.20;1.13;;;8.00;99.90;;;;;;6302087;22;20164;-72
2024/03/24 13:48:50;;;;;;;1.08;0.65;;;8.10;99.90;;;;;;6302538;22;20687;-71
2024/03/24 13:51:17;;;;;;;1.08;1.08;;;8.00;99.90;;;;;;6303983;22;20196;-72
2024/03/24 13:53:47;;;;;;;1.20;1.17;;;8.10;99.90;;;;;;6302945;22;20200;-69
2024/03/24 13:56:14;;;;;;;1.00;0.98;;;;;;;;;;6300402;22;20164;-72
2024/03/24 13:58:42;;;;;;;0.82;0.82;;;8.10;99.90;;;;;;6302117;22;20221;-72
2024/03/24 14:01:08;;;;;;;0.70;0.70;;;8.20;99.90;;;;;;6311694;22;20199;-72
2024/03/24 14:03:37;;;;;;;0.57;0.57;;;8.10;99.90;;;;;;6304021;22;20259;-71
2024/03/24 14:06:03;;;;;;;1.10;1.10;;;8.10;99.90;;;;;;6303443;22;20418;-72
2024/03/24 14:08:30;;;;;;;0.60;0.60;;;8.00;99.90;;;;;;6303142;22;20298;-72
2024/03/24 14:10:57;;;;;;;0.60;0.60;;;8.00;99.90;;;;;;6305106;22;20207;-72
2024/03/24 14:13:44;;;;;;;0.20;0.20;;;8.00;99.90;;;;;;6305803;22;20248;-73
2024/03/24 14:16:26;;;;;;;0.68;0.68;;;7.90;99.90;;;;;;6303363;22;20178;-72
2024/03/24 14:19:07;;;;;;;1.05;1.05;;;7.90;99.90;;;;;;6316736;22;20164;-73
2024/03/24 14:21:41;;;;;;;5.75;4.35;;;7.80;99.90;;;;;;6317181;22;20268;-73
2024/03/24 14:24:17;;;;;;;2.50;2.40;;;7.80;99.90;;;;;;6317310;22;20214;-73
2024/03/24 14:26:44;;;;;;;2.10;2.00;;;7.90;99.90;;;;;;6316229;22;20188;-72
2024/03/24 14:29:11;;;;;;;0.73;0.73;;;7.90;99.90;;;;;;6304701;22;20806;-71
2024/03/24 14:31:37;;;;;;;2.63;1.58;;;;;;;;;;6304609;22;20206;-70
2024/03/24 14:34:05;;;;;;;1.25;1.17;;;7.90;99.90;;;;;;6302361;22;20196;-69
2024/03/24 14:36:42;;;;;;;0.82;0.82;;;7.90;99.90;;;;;;6302938;22;20176;-72
2024/03/24 14:39:23;;;;;;;1.52;1.50;;;8.10;99.90;;;;;;6303421;22;20902;-70
2024/03/24 14:41:58;;;;;;;0.95;0.95;;;8.10;99.90;;;;;;6302637;22;20204;-71
2024/03/24 14:45:04;;;;;;;1.38;0.85;;;8.40;99.90;;;;;;6303988;22;20156;-72
2024/03/24 14:47:44;;;;;;;0.60;0.60;;;8.10;99.90;;;;;;6303553;22;20695;-71
2024/03/24 14:50:15;;;;;;;7.82;5.45;;;8.30;99.90;;;;;;6301710;22;20160;-67
2024/03/24 14:52:41;;;;;;;0.90;0.90;;;8.20;99.90;;;;;;6303576;22;20165;-71
2024/03/24 14:55:08;;;;;;;0.80;0.80;;;8.30;99.90;;;;;;6303940;22;20282;-70
2024/03/24 14:57:34;;;;;;;0.82;0.80;;;8.20;99.90;;;;;;6311904;22;20175;-71
2024/03/24 15:00:02;;;;;;;2.00;1.90;;;8.10;99.90;;;;;;6303585;22;20549;-73
2024/03/24 15:02:29;;;;;;;0.70;0.70;;;8.20;99.90;;;;;;6302514;22;20208;-73
2024/03/24 15:04:56;;;;;;;0.55;0.55;;;;;;;;;;6303171;22;20171;-72
2024/03/24 15:07:24;;;;;;;1.48;1.38;;;7.90;99.90;;;;;;6302804;22;20271;-72
2024/03/24 15:09:52;;;;;;;5.45;3.38;;;7.90;99.90;;;;;;6303504;22;20180;-71
2024/03/24 15:12:18;;;;;;;1.45;1.27;;;7.80;99.90;;;;;;6303749;22;20233;-71
2024/03/24 15:14:45;;;;;;;0.57;0.57;;;7.80;99.90;;;;;;6313540;22;20868;-72
2024/03/24 15:17:11;;;;;;;0.63;0.63;;;7.80;99.90;;;;;;6302006;22;20180;-68
2024/03/24 15:19:38;;;;;;;1.08;1.08;;;7.90;99.90;;;;;;6303208;22;20609;-67
2024/03/24 15:22:04;;;;;;;4.85;3.03;;;7.90;99.90;;;;;;6301043;22;20286;-67
2024/03/24 15:24:32;;;;;;;1.53;1.40;;;7.90;99.90;;;;;;6303286;22;20206;-72
2024/03/24 15:26:58;;;;;;;1.05;1.05;;;8.00;99.90;;;;;;6302313;22;20187;-71
2024/03/24 15:29:25;;;;;;;0.60;0.60;;;7.90;99.90;;;;;;6302898;22;20504;-72
2024/03/24 15:31:51;;;;;;;1.52;1.42;;;7.80;99.90;;;;;;6302686;22;20204;-71
2024/03/24 15:34:18;;;;;;;0.30;0.30;;;;;;;;;;6313211;22;20203;-70
2024/03/24 15:36:44;;;;;;;1.83;1.80;;;7.50;99.90;;;;;;6302358;22;20623;-72
2024/03/24 15:39:11;;;;;;;0.40;0.37;;;;;;;;;;6302681;22;20263;-71
2024/03/24 15:41:38;;;;;;;0.80;0.80;;;;;;;;;;6302601;22;20241;-70
2024/03/24 15:44:05;;;;;;;1.00;0.40;;;7.00;99.90;;;;;;6303269;22;20255;-71
2024/03/24 15:46:31;;;;;;;0.30;0.30;;;7.00;99.90;;;;;;6301544;22;20511;-71
2024/03/24 15:48:58;;;;;;;0.20;0.20;;;6.90;99.90;;;;;;6302456;22;20259;-72
2024/03/24 15:51:24;;;;;;;1.15;1.05;;;6.90;99.90;;;;;;6313377;22;20802;-73
2024/03/24 15:53:50;;;;;;;0.83;0.83;;;6.80;99.90;;;;;;6303168;22;20198;-74
2024/03/24 15:56:22;;;;;;;0.80;0.80;;;6.80;99.90;;;;;;6302283;22;20498;-74
2024/03/24 15:59:06;;;;;;;0.60;0.60;;;6.80;99.90;;;;;;6312959;22;20187;-73
2024/03/24 16:01:39;;;;;;;0.88;0.88;;;6.70;99.90;;;;;;6301788;22;20280;-74
2024/03/24 16:04:06;;;;;;;0.90;0.90;;;6.70;99.90;;;;;;6301872;22;20159;-73
2024/03/24 16:06:34;;;;;;;1.02;1.02;;;6.70;99.90;;;;;;6301313;22;20179;-73
2024/03/24 16:09:07;;;;;;;0.60;0.60;;;6.70;99.90;;;;;;6303892;22;20175;-74
2024/03/24 16:11:34;;;;;;;0.40;0.40;;;6.80;99.90;;;;;;6301947;22;20204;-74
2024/03/24 16:14:06;;;;;;;0.77;0.77;;;6.80;99.90;;;;;;6302474;22;20175;-73
2024/03/24 16:16:32;;;;;;;1.13;1.13;;;6.80;99.90;;;;;;6313764;22;20303;-74
2024/03/24 16:18:59;;;;;;;1.23;1.20;;;6.80;99.90;;;;;;6302983;22;20673;-75
2024/03/24 16:21:34;;;;;;;0.30;0.30;;;6.80;99.90;;;;;;6302006;22;20511;-74
2024/03/24 16:24:02;;;;;;;0.70;0.70;;;6.70;99.90;;;;;;6302903;22;20198;-74
2024/03/24 16:26:27;;;;;;;0.30;0.30;;;6.50;99.90;;;;;;6312877;22;20222;-74
2024/03/24 16:28:55;;;;;;;1.90;1.07;;;6.50;99.90;;;;;;6314317;22;20632;-73
2024/03/24 16:31:22;;;;;;;0.85;0.85;;;6.60;99.90;;;;;;6312403;22;21146;-73
2024/03/24 16:33:49;;;;;;;0.47;0.47;;;6.70;99.90;;;;;;6301764;22;20176;-74
2024/03/24 16:36:17;;;;;;;0.40;0.40;;;6.70;99.90;;;;;;6311962;22;20195;-73
2024/03/24 16:38:44;;;;;;;0.95;0.90;;;6.80;99.90;;;;;;6302851;22;20202;-74
2024/03/24 16:41:10;;;;;;;0.63;0.63;;;6.80;99.90;;;;;;6303194;22;20199;-73
2024/03/24 16:43:37;;;;;;;1.08;0.50;;;6.80;99.90;;;;;;6313354;22;20205;-74
2024/03/24 16:46:04;;;;;;;0.70;0.70;;;6.90;99.90;;;;;;6299551;22;20577;-72
2024/03/24 16:48:32;;;;;;;0.82;0.82;;;6.80;99.90;;;;;;6302936;22;20240;-73
2024/03/24 16:50:58;;;;;;;0.88;0.88;;;6.80;99.90;;;;;;6302851;22;20656;-73
2024/03/24 16:53:25;;;;;;;0.50;0.50;;;6.80;99.90;;;;;;6304030;22;20190;-72
2024/03/24 16:55:53;;;;;;;1.33;1.33;;;6.80;99.90;;;;;;6303197;22;20438;-71
2024/03/24 16:58:22;;;;;;;2.92;1.65;;;6.80;99.90;;;;;;6302242;22;20887;-71
2024/03/24 17:00:48;;;;;;;1.10;1.10;;;6.80;99.90;;;;;;6302990;22;20215;-74
2024/03/24 17:03:14;;;;;;;3.03;2.80;;;6.80;99.90;;;;;;6303273;22;20235;-75
2024/03/24 17:05:42;;;;;;;2.20;1.73;;;6.80;99.90;;;;;;6313039;22;20549;-74
2024/03/24 17:08:09;;;;;;;2.05;1.05;;;6.80;99.90;;;;;;6300816;22;20811;-73
2024/03/24 17:10:39;;;;;;;1.95;1.75;;;6.80;99.90;;;;;;6302442;22;20202;-75
2024/03/24 17:13:05;;;;;;;5.28;4.47;;;6.80;99.90;;;;;;6301384;22;20237;-75
2024/03/24 17:15:31;;;;;;;1.40;1.40;;;6.80;99.90;;;;;;6313043;22;20199;-75
2024/03/24 17:17:57;;;;;;;1.95;1.85;;;6.80;99.90;;;;;;6301503;22;20212;-73
2024/03/24 17:20:24;;;;;;;1.43;1.33;;;6.80;99.90;;;;;;6312756;22;20183;-73
2024/03/24 17:22:51;;;;;;;3.80;1.60;;;6.80;99.90;;;;;;6302805;22;20771;-71
2024/03/24 17:25:18;;;;;;;1.20;1.20;;;6.70;99.90;;;;;;6301978;22;20210;-73
2024/03/24 17:27:44;;;;;;;1.15;1.10;;;6.60;99.90;;;;;;6310813;22;20175;-71
2024/03/24 17:30:12;;;;;;;1.37;0.80;;;6.50;99.90;;;;;;6304472;22;20233;-74
2024/03/24 17:32:38;;;;;;;1.33;1.30;;;6.50;99.90;;;;;;6303811;22;20203;-73
2024/03/24 17:35:06;;;;;;;1.23;1.23;;;6.40;99.90;;;;;;6305067;22;20302;-71
2024/03/24 17:37:32;;;;;;;1.48;0.90;;;6.40;99.90;;;;;;6305987;22;20179;-73
2024/03/24 17:40:00;;;;;;;2.50;2.30;;;6.40;99.90;;;;;;6307078;22;20274;-72
2024/03/24 17:42:26;;;;;;;0.88;0.88;;;6.40;99.90;;;;;;6304606;22;20437;-74
2024/03/24 17:44:53;;;;;;;0.50;0.50;;;6.30;99.90;;;;;;6303451;22;20683;-74
2024/03/24 17:47:19;;;;;;;1.30;0.90;;;6.30;99.90;;;;;;6302528;22;20421;-73
2024/03/24 17:49:46;;;;;;;2.05;1.52;;;6.30;99.90;;;;;;6302372;22;20229;-73
2024/03/24 17:52:12;;;;;;;3.55;0.90;;;6.20;99.90;;;;;;6300958;22;20688;-74
2024/03/24 17:54:39;;;;;;;1.20;1.10;;;6.20;99.90;;;;;;6300000;22;20202;-73
2024/03/24 17:57:06;;;;;;;1.70;1.65;;;6.20;99.90;;;;;;6300054;22;20190;-73
2024/03/24 17:59:33;;;;;;;1.85;1.05;;;6.20;99.90;;;;;;6310666;22;20476;-73
2024/03/24 18:01:59;;;;;;;1.55;1.55;;;6.20;99.90;;;;;;6311564;22;20198;-72